createdAt,value
2017-11-09T00:02:17.495Z,12.44
2017-11-09T00:04:55.001Z,12.50
2017-11-09T00:07:25.524Z,12.59
2017-11-09T00:10:11.098Z,12.64
2017-11-09T00:12:46.121Z,12.78
2017-11-09T00:15:40.436Z,12.86
2017-11-09T00:18:11.189Z,12.93
2017-11-09T00:20:42.197Z,12.98
2017-11-09T00:23:18.760Z,12.94
2017-11-09T00:25:49.305Z,12.88
2017-11-09T00:28:19.606Z,12.79
2017-11-09T00:30:52.412Z,12.65
2017-11-09T00:33:23.248Z,12.73
2017-11-09T00:35:54.173Z,12.59
2017-11-09T00:38:26.703Z,12.34
2017-11-09T00:40:58.523Z,12.27
2017-11-09T00:43:29.253Z,12.35
2017-11-09T00:46:00.569Z,12.34
2017-11-09T00:48:32.058Z,12.61
2017-11-09T00:51:10.468Z,12.61
2017-11-09T00:53:40.702Z,12.68
2017-11-09T00:56:11.503Z,12.76
2017-11-09T00:58:48.251Z,12.72
2017-11-09T01:01:24.511Z,12.63
2017-11-09T01:04:04.243Z,12.60
2017-11-09T01:06:36.409Z,12.64
2017-11-09T01:09:07.337Z,12.69
2017-11-09T01:11:37.659Z,12.82
2017-11-09T01:14:07.862Z,12.68
2017-11-09T01:16:39.633Z,12.69
2017-11-09T01:19:10.430Z,12.62
2017-11-09T01:21:48.257Z,12.56
2017-11-09T01:24:19.675Z,12.71
2017-11-09T01:26:51.416Z,12.78
2017-11-09T01:29:22.398Z,12.82
2017-11-09T01:31:54.148Z,12.88
2017-11-09T01:34:24.492Z,12.82
2017-11-09T01:36:56.011Z,12.59
2017-11-09T01:39:27.189Z,12.61
2017-11-09T01:41:58.867Z,12.74
2017-11-09T01:44:29.036Z,12.66
2017-11-09T01:47:13.099Z,12.54
2017-11-09T01:49:43.467Z,12.48
2017-11-09T01:52:18.621Z,12.55
2017-11-09T01:54:52.133Z,12.63
2017-11-09T01:57:23.515Z,12.76
2017-11-09T01:59:54.322Z,12.63
2017-11-09T02:04:25.633Z,12.67
2017-11-09T02:06:56.585Z,12.61
2017-11-09T02:09:28.591Z,12.49
2017-11-09T02:12:00.357Z,12.48
2017-11-09T02:23:47.368Z,12.31
2017-11-09T02:26:18.542Z,12.21
2017-11-09T02:28:57.789Z,12.33
2017-11-09T02:31:46.743Z,12.50
2017-11-09T02:34:35.673Z,12.55
2017-11-09T02:37:09.261Z,12.27
2017-11-09T02:39:41.179Z,12.34
2017-11-09T02:42:12.654Z,12.44
2017-11-09T02:44:43.901Z,12.41
2017-11-09T02:47:15.867Z,12.28
2017-11-09T02:49:49.105Z,12.36
2017-11-09T02:52:21.777Z,12.45
2017-11-09T02:54:58.566Z,12.46
2017-11-09T02:57:29.390Z,12.38
2017-11-09T02:59:59.697Z,12.27
2017-11-09T03:02:31.842Z,12.11
2017-11-09T03:05:03.141Z,11.98
2017-11-09T03:07:35.128Z,11.91
2017-11-09T03:10:06.825Z,12.00
2017-11-09T03:12:42.147Z,11.99
2017-11-09T03:15:17.050Z,11.98
2017-11-09T03:17:51.157Z,12.02
2017-11-09T03:20:29.964Z,12.12
2017-11-09T03:23:02.475Z,12.25
2017-11-09T03:25:33.202Z,12.29
2017-11-09T03:28:04.034Z,12.18
2017-11-09T03:30:38.929Z,12.18
2017-11-09T03:33:10.091Z,12.21
2017-11-09T03:35:40.851Z,12.20
2017-11-09T03:38:11.331Z,12.13
2017-11-09T03:40:42.326Z,12.03
2017-11-09T03:49:45.698Z,12.15
2017-11-09T03:52:17.698Z,12.23
2017-11-09T03:54:48.466Z,12.40
2017-11-09T03:57:27.438Z,12.36
2017-11-09T04:00:21.763Z,12.44
2017-11-09T04:08:35.840Z,12.18
2017-11-09T04:11:16.244Z,12.09
2017-11-09T04:13:53.269Z,12.01
2017-11-09T04:16:25.082Z,12.00
2017-11-09T04:18:56.889Z,11.90
2017-11-09T04:21:27.523Z,11.89
2017-11-09T04:23:57.958Z,12.06
2017-11-09T04:26:29.174Z,12.04
2017-11-09T04:28:59.682Z,12.22
2017-11-09T04:31:31.425Z,12.30
2017-11-09T04:34:03.774Z,12.29
2017-11-09T04:36:35.688Z,12.11
2017-11-09T04:39:06.613Z,12.16
2017-11-09T04:41:43.831Z,12.22
2017-11-09T04:44:25.776Z,12.25
2017-11-09T04:46:57.175Z,12.28
2017-11-09T04:49:29.269Z,12.33
2017-11-09T04:51:59.585Z,12.23
2017-11-09T04:54:35.157Z,12.25
2017-11-09T04:57:07.315Z,12.32
2017-11-09T05:03:04.195Z,12.46
2017-11-09T05:07:47.571Z,12.46
2017-11-09T05:10:26.054Z,12.52
2017-11-09T05:13:02.603Z,12.53
2017-11-09T05:15:39.405Z,12.54
2017-11-09T05:18:10.529Z,12.49
2017-11-09T05:20:41.650Z,12.54
2017-11-09T05:23:20.872Z,12.60
2017-11-09T05:26:06.217Z,12.58
2017-11-09T05:28:39.636Z,12.61
2017-11-09T05:31:10.051Z,12.57
2017-11-09T05:33:42.152Z,12.69
2017-11-09T05:36:22.531Z,12.65
2017-11-09T05:38:55.542Z,12.70
2017-11-09T05:41:26.367Z,12.78
2017-11-09T05:43:57.744Z,12.85
2017-11-09T05:46:28.318Z,12.91
2017-11-09T05:49:00.729Z,12.97
2017-11-09T05:51:33.875Z,13.05
2017-11-09T05:54:15.504Z,13.05
2017-11-09T05:56:46.753Z,12.98
2017-11-09T05:59:17.723Z,12.95
2017-11-09T06:01:48.425Z,12.94
2017-11-09T06:04:23.240Z,12.90
2017-11-09T06:06:53.576Z,12.85
2017-11-09T06:09:28.924Z,12.70
2017-11-09T06:11:59.347Z,12.61
2017-11-09T06:14:31.352Z,12.59
2017-11-09T06:17:01.942Z,12.56
2017-11-09T06:19:32.752Z,12.71
2017-11-09T06:22:06.654Z,12.69
2017-11-09T06:24:41.175Z,12.53
2017-11-09T06:27:21.818Z,12.30
2017-11-09T06:29:53.159Z,12.38
2017-11-09T06:32:23.773Z,12.35
2017-11-09T06:34:54.720Z,12.28
2017-11-09T06:37:42.090Z,12.07
2017-11-09T06:40:25.254Z,11.97
2017-11-09T06:42:56.509Z,11.90
2017-11-09T06:45:27.626Z,12.01
2017-11-09T06:47:58.260Z,12.07
2017-11-09T06:50:30.577Z,11.96
2017-11-09T06:53:01.348Z,11.92
2017-11-09T06:55:32.158Z,11.84
2017-11-09T06:58:05.780Z,11.82
2017-11-09T07:00:36.812Z,11.90
2017-11-09T07:03:07.437Z,11.90
2017-11-09T07:05:41.834Z,11.85
2017-11-09T09:33:17.596Z,12.44
2017-11-09T09:35:59.593Z,12.36
2017-11-09T09:38:45.579Z,12.27
2017-11-09T09:41:22.184Z,12.30
2017-11-09T09:43:55.035Z,12.36
2017-11-09T09:46:28.692Z,12.41
2017-11-09T09:52:21.996Z,12.35
2017-11-09T09:54:54.959Z,12.50
2017-11-09T09:57:31.567Z,12.44
2017-11-09T10:00:08.380Z,12.56
2017-11-09T10:02:41.854Z,12.84
2017-11-09T10:05:13.366Z,12.85
2017-11-09T10:07:47.343Z,13.13
2017-11-09T10:10:20.374Z,13.10
2017-11-09T10:15:52.571Z,12.79
2017-11-09T10:18:26.555Z,12.60
2017-11-09T10:21:04.611Z,12.78
2017-11-09T10:26:29.601Z,12.82
2017-11-09T10:29:04.652Z,12.90
2017-11-09T10:31:38.358Z,12.85
2017-11-09T10:34:10.896Z,12.77
2017-11-09T10:39:33.953Z,12.53
2017-11-09T10:42:07.545Z,12.16
2017-11-09T10:44:55.062Z,12.18
2017-11-09T10:47:28.439Z,12.44
2017-11-09T10:50:04.560Z,12.22
2017-11-09T11:05:44.458Z,12.93
2017-11-09T11:08:23.278Z,12.88
2017-11-09T11:11:00.595Z,12.70
2017-11-09T11:16:31.367Z,12.50
2017-11-09T11:19:05.165Z,12.71
2017-11-09T11:21:40.261Z,12.64
2017-11-09T11:24:22.762Z,12.61
2017-11-09T11:27:01.219Z,12.63
2017-11-09T11:29:32.973Z,12.64
2017-11-09T11:35:09.661Z,12.25
2017-11-09T11:37:43.379Z,12.43
2017-11-09T11:40:19.869Z,12.74
2017-11-09T11:43:00.468Z,13.03
2017-11-09T11:45:34.972Z,12.84
2017-11-09T11:48:12.698Z,13.11
2017-11-09T11:53:28.265Z,12.95
2017-11-09T11:56:00.165Z,13.07
2017-11-09T11:58:36.070Z,13.20
2017-11-09T12:01:11.392Z,13.43
2017-11-09T12:04:00.019Z,13.51
2017-11-09T12:06:33.856Z,13.21
2017-11-09T12:09:08.626Z,13.20
2017-11-09T12:12:03.999Z,13.60
2017-11-09T12:14:35.612Z,13.48
2017-11-09T12:17:10.556Z,13.02
2017-11-09T12:24:41.585Z,13.17
2017-11-09T12:27:12.968Z,13.19
2017-11-09T12:29:48.642Z,13.19
2017-11-09T12:32:25.461Z,13.62
2017-11-09T12:34:58.770Z,13.48
2017-11-09T12:37:32.362Z,13.08
2017-11-09T12:40:16.414Z,13.19
2017-11-09T12:45:29.166Z,13.45
2017-11-09T12:48:03.036Z,13.74
2017-11-09T12:50:35.637Z,13.68
2017-11-09T12:53:07.750Z,13.36
2017-11-09T12:58:30.667Z,13.09
2017-11-09T13:01:03.360Z,13.24
2017-11-09T13:03:35.549Z,13.23
2017-11-09T13:06:09.462Z,13.12
2017-11-09T13:08:44.275Z,13.08
2017-11-09T13:11:26.977Z,13.25
2017-11-09T13:14:06.711Z,13.18
2017-11-09T13:16:46.681Z,13.03
2017-11-09T13:19:29.485Z,13.06
2017-11-09T13:22:03.531Z,12.98
2017-11-09T13:24:47.950Z,12.63
2017-11-09T13:27:21.476Z,12.78
2017-11-09T13:29:53.776Z,13.01
2017-11-09T13:32:43.481Z,13.03
2017-11-09T13:37:52.247Z,12.97
2017-11-09T13:40:31.252Z,13.14
2017-11-09T13:48:38.543Z,12.84
2017-11-09T13:51:11.892Z,13.08
2017-11-09T13:53:45.597Z,13.04
2017-11-09T13:56:27.468Z,13.12
2017-11-09T13:59:00.241Z,13.15
2017-11-09T14:01:33.955Z,13.10
2017-11-09T14:04:06.440Z,13.12
2017-11-09T14:06:39.254Z,13.12
2017-11-09T14:09:23.970Z,13.03
2017-11-09T14:11:55.475Z,13.02
2017-11-09T14:14:26.668Z,12.95
2017-11-09T14:17:15.774Z,12.87
2017-11-09T14:19:47.513Z,12.96
2017-11-09T14:25:05.992Z,13.04
2017-11-09T14:27:58.526Z,13.21
2017-11-09T14:30:35.219Z,13.20
2017-11-09T14:33:26.956Z,12.82
2017-11-09T14:38:58.555Z,12.86
2017-11-09T14:41:35.661Z,12.79
2017-11-09T14:44:08.952Z,12.52
2017-11-09T14:46:48.368Z,12.42
2017-11-09T14:49:32.095Z,12.50
2017-11-09T14:52:11.404Z,12.35
2017-11-09T14:54:44.149Z,12.49
2017-11-09T14:57:26.286Z,12.49
